sensor_id;sensor_type;location;lat;lon;timestamp;temperature;humidity
612;DHT22;293;53.888;11.464;2023-05-07T00:00:24;9.70;99.90
612;DHT22;293;53.888;11.464;2023-05-07T00:02:53;9.70;99.90
612;DHT22;293;53.888;11.464;2023-05-07T00:05:20;9.70;99.90
612;DHT22;293;53.888;11.464;2023-05-07T00:07:47;9.70;99.90
612;DHT22;293;53.888;11.464;2023-05-07T00:10:13;9.70;99.90
612;DHT22;293;53.888;11.464;2023-05-07T00:12:40;9.70;99.90
612;DHT22;293;53.888;11.464;2023-05-07T00:15:08;9.80;99.90
612;DHT22;293;53.888;11.464;2023-05-07T00:17:36;9.70;99.90
612;DHT22;293;53.888;11.464;2023-05-07T00:20:05;9.70;99.90
612;DHT22;293;53.888;11.464;2023-05-07T00:22:32;9.70;99.90
612;DHT22;293;53.888;11.464;2023-05-07T00:24:59;9.80;99.90
612;DHT22;293;53.888;11.464;2023-05-07T00:27:26;9.70;99.90
612;DHT22;293;53.888;11.464;2023-05-07T00:29:53;9.70;99.90
612;DHT22;293;53.888;11.464;2023-05-07T00:32:20;9.70;99.90
612;DHT22;293;53.888;11.464;2023-05-07T00:34:47;9.70;99.90
612;DHT22;293;53.888;11.464;2023-05-07T00:37:15;9.70;99.90
612;DHT22;293;53.888;11.464;2023-05-07T00:39:42;9.80;99.90
612;DHT22;293;53.888;11.464;2023-05-07T00:42:08;9.70;99.90
612;DHT22;293;53.888;11.464;2023-05-07T00:44:35;9.70;99.90
612;DHT22;293;53.888;11.464;2023-05-07T00:47:03;9.70;99.90
612;DHT22;293;53.888;11.464;2023-05-07T00:49:37;9.70;99.90
612;DHT22;293;53.888;11.464;2023-05-07T00:52:05;9.70;99.90
612;DHT22;293;53.888;11.464;2023-05-07T00:54:34;9.80;99.90
612;DHT22;293;53.888;11.464;2023-05-07T00:57:02;9.70;99.90
612;DHT22;293;53.888;11.464;2023-05-07T00:59:29;9.70;99.90
612;DHT22;293;53.888;11.464;2023-05-07T01:01:56;9.70;99.90
612;DHT22;293;53.888;11.464;2023-05-07T01:04:23;9.80;99.90
612;DHT22;293;53.888;11.464;2023-05-07T01:06:50;9.70;99.90
612;DHT22;293;53.888;11.464;2023-05-07T01:09:19;9.80;99.90
612;DHT22;293;53.888;11.464;2023-05-07T01:11:48;9.80;99.90
612;DHT22;293;53.888;11.464;2023-05-07T01:14:16;9.80;99.90
612;DHT22;293;53.888;11.464;2023-05-07T01:16:43;9.80;99.90
612;DHT22;293;53.888;11.464;2023-05-07T01:19:11;9.80;99.90
612;DHT22;293;53.888;11.464;2023-05-07T01:21:44;9.70;99.90
612;DHT22;293;53.888;11.464;2023-05-07T01:24:13;9.80;99.90
612;DHT22;293;53.888;11.464;2023-05-07T01:26:41;9.80;99.90
612;DHT22;293;53.888;11.464;2023-05-07T01:29:08;9.70;99.90
612;DHT22;293;53.888;11.464;2023-05-07T01:31:36;9.80;99.90
612;DHT22;293;53.888;11.464;2023-05-07T01:34:04;9.80;99.90
612;DHT22;293;53.888;11.464;2023-05-07T01:36:31;9.80;99.90
612;DHT22;293;53.888;11.464;2023-05-07T01:38:59;9.80;99.90
612;DHT22;293;53.888;11.464;2023-05-07T01:41:28;9.80;99.90
612;DHT22;293;53.888;11.464;2023-05-07T01:43:56;9.80;99.90
612;DHT22;293;53.888;11.464;2023-05-07T01:46:24;9.70;99.90
612;DHT22;293;53.888;11.464;2023-05-07T01:48:52;9.70;99.90
612;DHT22;293;53.888;11.464;2023-05-07T01:51:19;9.70;99.90
612;DHT22;293;53.888;11.464;2023-05-07T01:53:47;9.70;99.90
612;DHT22;293;53.888;11.464;2023-05-07T01:56:16;9.80;99.90
612;DHT22;293;53.888;11.464;2023-05-07T01:58:45;9.70;99.90
612;DHT22;293;53.888;11.464;2023-05-07T02:01:12;9.70;99.90
612;DHT22;293;53.888;11.464;2023-05-07T02:03:39;9.70;99.90
612;DHT22;293;53.888;11.464;2023-05-07T02:06:06;9.80;99.90
612;DHT22;293;53.888;11.464;2023-05-07T02:08:33;9.80;99.90
612;DHT22;293;53.888;11.464;2023-05-07T02:11:00;9.80;99.90
612;DHT22;293;53.888;11.464;2023-05-07T02:13:29;9.80;99.90
612;DHT22;293;53.888;11.464;2023-05-07T02:15:57;9.80;99.90
612;DHT22;293;53.888;11.464;2023-05-07T02:18:24;9.80;99.90
612;DHT22;293;53.888;11.464;2023-05-07T02:20:51;9.80;99.90
612;DHT22;293;53.888;11.464;2023-05-07T02:23:18;9.80;99.90
612;DHT22;293;53.888;11.464;2023-05-07T02:25:45;9.80;99.90
612;DHT22;293;53.888;11.464;2023-05-07T02:28:12;9.80;99.90
612;DHT22;293;53.888;11.464;2023-05-07T02:30:39;9.80;99.90
612;DHT22;293;53.888;11.464;2023-05-07T02:33:07;9.80;99.90
612;DHT22;293;53.888;11.464;2023-05-07T02:35:35;9.80;99.90
612;DHT22;293;53.888;11.464;2023-05-07T02:38:02;9.80;99.90
612;DHT22;293;53.888;11.464;2023-05-07T02:40:28;9.80;99.90
612;DHT22;293;53.888;11.464;2023-05-07T02:42:59;9.90;99.90
612;DHT22;293;53.888;11.464;2023-05-07T02:45:26;9.90;99.90
612;DHT22;293;53.888;11.464;2023-05-07T02:47:53;10.00;99.90
612;DHT22;293;53.888;11.464;2023-05-07T02:50:22;9.90;99.90
612;DHT22;293;53.888;11.464;2023-05-07T02:52:49;9.90;99.90
612;DHT22;293;53.888;11.464;2023-05-07T02:55:16;9.90;99.90
612;DHT22;293;53.888;11.464;2023-05-07T02:57:42;9.90;99.90
612;DHT22;293;53.888;11.464;2023-05-07T03:00:14;9.90;99.90
612;DHT22;293;53.888;11.464;2023-05-07T03:02:41;9.90;99.90
612;DHT22;293;53.888;11.464;2023-05-07T03:05:08;9.90;99.90
612;DHT22;293;53.888;11.464;2023-05-07T03:07:36;9.90;99.90
612;DHT22;293;53.888;11.464;2023-05-07T03:10:04;9.80;99.90
612;DHT22;293;53.888;11.464;2023-05-07T03:12:31;9.80;99.90
612;DHT22;293;53.888;11.464;2023-05-07T03:14:58;9.80;99.90
612;DHT22;293;53.888;11.464;2023-05-07T03:17:25;9.80;99.90
612;DHT22;293;53.888;11.464;2023-05-07T03:19:52;9.80;99.90
612;DHT22;293;53.888;11.464;2023-05-07T03:22:19;9.80;99.90
612;DHT22;293;53.888;11.464;2023-05-07T03:24:47;9.80;99.90
612;DHT22;293;53.888;11.464;2023-05-07T03:27:14;9.80;99.90
612;DHT22;293;53.888;11.464;2023-05-07T03:29:41;9.90;99.90
612;DHT22;293;53.888;11.464;2023-05-07T03:32:08;9.90;99.90
612;DHT22;293;53.888;11.464;2023-05-07T03:34:34;9.90;99.90
612;DHT22;293;53.888;11.464;2023-05-07T03:37:01;9.90;99.90
612;DHT22;293;53.888;11.464;2023-05-07T03:39:28;9.90;99.90
612;DHT22;293;53.888;11.464;2023-05-07T03:41:57;9.80;99.90
612;DHT22;293;53.888;11.464;2023-05-07T03:44:24;9.90;99.90
612;DHT22;293;53.888;11.464;2023-05-07T03:46:51;9.90;99.90
612;DHT22;293;53.888;11.464;2023-05-07T03:49:17;9.90;99.90
612;DHT22;293;53.888;11.464;2023-05-07T03:51:44;9.90;99.90
612;DHT22;293;53.888;11.464;2023-05-07T03:54:11;9.90;99.90
612;DHT22;293;53.888;11.464;2023-05-07T03:56:38;9.80;99.90
612;DHT22;293;53.888;11.464;2023-05-07T03:59:06;9.80;99.90
612;DHT22;293;53.888;11.464;2023-05-07T04:01:33;9.80;99.90
612;DHT22;293;53.888;11.464;2023-05-07T04:04:01;9.90;99.90
612;DHT22;293;53.888;11.464;2023-05-07T04:06:28;9.90;99.90
612;DHT22;293;53.888;11.464;2023-05-07T04:08:55;9.90;99.90
612;DHT22;293;53.888;11.464;2023-05-07T04:11:22;9.90;99.90
612;DHT22;293;53.888;11.464;2023-05-07T04:13:49;10.00;99.90
612;DHT22;293;53.888;11.464;2023-05-07T04:16:17;9.90;99.90
612;DHT22;293;53.888;11.464;2023-05-07T04:18:44;9.90;99.90
612;DHT22;293;53.888;11.464;2023-05-07T04:21:14;9.90;99.90
612;DHT22;293;53.888;11.464;2023-05-07T04:23:42;9.90;99.90
612;DHT22;293;53.888;11.464;2023-05-07T04:26:09;10.00;99.90
612;DHT22;293;53.888;11.464;2023-05-07T04:28:36;10.10;99.90
612;DHT22;293;53.888;11.464;2023-05-07T04:31:03;10.10;99.90
612;DHT22;293;53.888;11.464;2023-05-07T04:33:31;10.10;99.90
612;DHT22;293;53.888;11.464;2023-05-07T04:35:58;10.10;99.90
612;DHT22;293;53.888;11.464;2023-05-07T04:38:28;10.10;99.90
612;DHT22;293;53.888;11.464;2023-05-07T04:40:55;10.10;99.90
612;DHT22;293;53.888;11.464;2023-05-07T04:43:22;10.10;99.90
612;DHT22;293;53.888;11.464;2023-05-07T04:45:50;10.20;99.90
612;DHT22;293;53.888;11.464;2023-05-07T04:48:17;10.20;99.90
612;DHT22;293;53.888;11.464;2023-05-07T04:50:48;10.20;99.90
612;DHT22;293;53.888;11.464;2023-05-07T04:53:16;10.30;99.90
612;DHT22;293;53.888;11.464;2023-05-07T04:55:43;10.30;99.90
612;DHT22;293;53.888;11.464;2023-05-07T04:58:10;10.40;99.90
612;DHT22;293;53.888;11.464;2023-05-07T05:00:37;10.40;99.90
612;DHT22;293;53.888;11.464;2023-05-07T05:03:04;10.50;99.90
612;DHT22;293;53.888;11.464;2023-05-07T05:05:31;10.50;99.90
612;DHT22;293;53.888;11.464;2023-05-07T05:07:59;10.60;99.90
612;DHT22;293;53.888;11.464;2023-05-07T05:10:26;10.60;99.90
612;DHT22;293;53.888;11.464;2023-05-07T05:12:53;10.70;99.90
612;DHT22;293;53.888;11.464;2023-05-07T05:15:20;10.80;99.90
612;DHT22;293;53.888;11.464;2023-05-07T05:17:47;10.70;99.90
612;DHT22;293;53.888;11.464;2023-05-07T05:20:14;10.70;99.90
612;DHT22;293;53.888;11.464;2023-05-07T05:22:41;10.80;99.90
612;DHT22;293;53.888;11.464;2023-05-07T05:25:09;10.80;99.90
612;DHT22;293;53.888;11.464;2023-05-07T05:27:36;11.10;99.90
612;DHT22;293;53.888;11.464;2023-05-07T05:30:04;11.40;99.90
612;DHT22;293;53.888;11.464;2023-05-07T05:32:31;11.80;99.90
612;DHT22;293;53.888;11.464;2023-05-07T05:34:58;12.20;99.90
612;DHT22;293;53.888;11.464;2023-05-07T05:37:25;12.50;99.90
612;DHT22;293;53.888;11.464;2023-05-07T05:39:52;12.40;99.90
612;DHT22;293;53.888;11.464;2023-05-07T05:42:21;12.40;99.90
612;DHT22;293;53.888;11.464;2023-05-07T05:44:48;12.50;99.90
612;DHT22;293;53.888;11.464;2023-05-07T05:47:15;12.60;99.90
612;DHT22;293;53.888;11.464;2023-05-07T05:49:42;12.60;99.90
612;DHT22;293;53.888;11.464;2023-05-07T05:52:11;12.70;99.90
612;DHT22;293;53.888;11.464;2023-05-07T05:54:38;12.70;99.90
612;DHT22;293;53.888;11.464;2023-05-07T05:57:05;12.80;99.90
612;DHT22;293;53.888;11.464;2023-05-07T05:59:33;12.70;99.90
612;DHT22;293;53.888;11.464;2023-05-07T06:02:00;12.90;99.90
612;DHT22;293;53.888;11.464;2023-05-07T06:04:27;13.20;99.90
612;DHT22;293;53.888;11.464;2023-05-07T06:06:54;13.70;99.90
612;DHT22;293;53.888;11.464;2023-05-07T06:09:22;14.10;99.90
612;DHT22;293;53.888;11.464;2023-05-07T06:11:49;14.10;99.90
612;DHT22;293;53.888;11.464;2023-05-07T06:14:16;13.80;99.90
612;DHT22;293;53.888;11.464;2023-05-07T06:16:44;13.50;99.90
612;DHT22;293;53.888;11.464;2023-05-07T06:19:11;13.50;99.90
612;DHT22;293;53.888;11.464;2023-05-07T06:21:39;14.00;99.90
612;DHT22;293;53.888;11.464;2023-05-07T06:24:07;14.00;99.90
612;DHT22;293;53.888;11.464;2023-05-07T06:26:33;14.00;99.90
612;DHT22;293;53.888;11.464;2023-05-07T06:29:00;14.20;99.90
612;DHT22;293;53.888;11.464;2023-05-07T06:31:30;14.30;99.90
612;DHT22;293;53.888;11.464;2023-05-07T06:33:58;14.40;99.90
612;DHT22;293;53.888;11.464;2023-05-07T06:36:27;14.20;99.90
612;DHT22;293;53.888;11.464;2023-05-07T06:38:54;14.20;99.90
612;DHT22;293;53.888;11.464;2023-05-07T06:41:21;14.10;99.90
612;DHT22;293;53.888;11.464;2023-05-07T06:43:48;13.90;99.90
612;DHT22;293;53.888;11.464;2023-05-07T06:46:15;13.80;99.90
612;DHT22;293;53.888;11.464;2023-05-07T06:48:42;13.70;99.90
612;DHT22;293;53.888;11.464;2023-05-07T06:51:10;13.70;99.90
612;DHT22;293;53.888;11.464;2023-05-07T06:53:37;13.70;99.90
612;DHT22;293;53.888;11.464;2023-05-07T06:56:04;13.80;99.90
612;DHT22;293;53.888;11.464;2023-05-07T06:58:32;13.90;99.90
612;DHT22;293;53.888;11.464;2023-05-07T07:00:59;13.90;99.90
612;DHT22;293;53.888;11.464;2023-05-07T07:03:25;13.90;99.90
612;DHT22;293;53.888;11.464;2023-05-07T07:05:53;13.90;99.90
612;DHT22;293;53.888;11.464;2023-05-07T07:08:22;13.90;99.90
612;DHT22;293;53.888;11.464;2023-05-07T07:10:49;13.80;99.90
612;DHT22;293;53.888;11.464;2023-05-07T07:13:16;13.80;99.90
612;DHT22;293;53.888;11.464;2023-05-07T07:15:43;13.70;99.90
612;DHT22;293;53.888;11.464;2023-05-07T07:18:10;13.70;99.90
612;DHT22;293;53.888;11.464;2023-05-07T07:20:37;13.60;99.90
612;DHT22;293;53.888;11.464;2023-05-07T07:23:04;13.60;99.90
612;DHT22;293;53.888;11.464;2023-05-07T07:25:32;13.50;99.90
612;DHT22;293;53.888;11.464;2023-05-07T07:27:59;13.50;99.90
612;DHT22;293;53.888;11.464;2023-05-07T07:30:26;13.50;99.90
612;DHT22;293;53.888;11.464;2023-05-07T07:32:53;13.40;99.90
612;DHT22;293;53.888;11.464;2023-05-07T07:35:20;13.40;99.90
612;DHT22;293;53.888;11.464;2023-05-07T07:37:48;13.30;99.90
612;DHT22;293;53.888;11.464;2023-05-07T07:40:16;13.30;99.90
612;DHT22;293;53.888;11.464;2023-05-07T07:42:45;13.50;99.90
612;DHT22;293;53.888;11.464;2023-05-07T07:45:11;13.40;99.90
612;DHT22;293;53.888;11.464;2023-05-07T07:47:39;13.50;99.90
612;DHT22;293;53.888;11.464;2023-05-07T07:50:07;13.50;99.90
612;DHT22;293;53.888;11.464;2023-05-07T07:52:34;13.70;99.90
612;DHT22;293;53.888;11.464;2023-05-07T07:55:01;13.70;99.90
612;DHT22;293;53.888;11.464;2023-05-07T07:57:28;13.70;99.90
612;DHT22;293;53.888;11.464;2023-05-07T07:59:57;13.80;99.90
612;DHT22;293;53.888;11.464;2023-05-07T08:02:24;13.90;99.90
612;DHT22;293;53.888;11.464;2023-05-07T08:04:51;14.00;99.90
612;DHT22;293;53.888;11.464;2023-05-07T08:07:17;15.00;99.90
612;DHT22;293;53.888;11.464;2023-05-07T08:09:46;14.30;99.90
612;DHT22;293;53.888;11.464;2023-05-07T08:12:13;14.30;99.90
612;DHT22;293;53.888;11.464;2023-05-07T08:14:40;14.40;99.90
612;DHT22;293;53.888;11.464;2023-05-07T08:17:08;14.30;99.90
612;DHT22;293;53.888;11.464;2023-05-07T08:19:35;14.20;99.90
612;DHT22;293;53.888;11.464;2023-05-07T08:22:02;14.20;99.90
612;DHT22;293;53.888;11.464;2023-05-07T08:24:30;14.20;99.90
612;DHT22;293;53.888;11.464;2023-05-07T08:26:57;14.20;99.90
612;DHT22;293;53.888;11.464;2023-05-07T08:29:23;14.20;99.90
612;DHT22;293;53.888;11.464;2023-05-07T08:31:50;14.20;99.90
612;DHT22;293;53.888;11.464;2023-05-07T08:34:19;14.10;99.90
612;DHT22;293;53.888;11.464;2023-05-07T08:36:46;14.00;99.90
612;DHT22;293;53.888;11.464;2023-05-07T08:39:14;14.00;99.90
612;DHT22;293;53.888;11.464;2023-05-07T08:41:44;14.00;99.90
612;DHT22;293;53.888;11.464;2023-05-07T08:44:12;14.00;99.90
612;DHT22;293;53.888;11.464;2023-05-07T08:46:41;14.00;99.90
612;DHT22;293;53.888;11.464;2023-05-07T08:49:09;14.10;99.90
612;DHT22;293;53.888;11.464;2023-05-07T08:51:37;14.20;99.90
612;DHT22;293;53.888;11.464;2023-05-07T08:54:04;14.10;99.90
612;DHT22;293;53.888;11.464;2023-05-07T08:56:32;14.20;99.90
612;DHT22;293;53.888;11.464;2023-05-07T08:58:59;14.10;99.90
612;DHT22;293;53.888;11.464;2023-05-07T09:01:26;14.20;99.90
612;DHT22;293;53.888;11.464;2023-05-07T09:03:53;14.30;99.90
612;DHT22;293;53.888;11.464;2023-05-07T09:06:21;14.40;99.90
612;DHT22;293;53.888;11.464;2023-05-07T09:08:53;14.50;99.90
612;DHT22;293;53.888;11.464;2023-05-07T09:11:21;14.60;99.90
612;DHT22;293;53.888;11.464;2023-05-07T09:13:48;14.60;99.90
612;DHT22;293;53.888;11.464;2023-05-07T09:16:15;14.60;99.90
612;DHT22;293;53.888;11.464;2023-05-07T09:18:42;14.60;99.90
612;DHT22;293;53.888;11.464;2023-05-07T09:21:10;14.60;99.90
612;DHT22;293;53.888;11.464;2023-05-07T09:23:38;14.70;99.80
612;DHT22;293;53.888;11.464;2023-05-07T09:26:06;14.80;99.70
612;DHT22;293;53.888;11.464;2023-05-07T09:28:38;14.80;99.70
612;DHT22;293;53.888;11.464;2023-05-07T09:31:05;14.90;99.40
612;DHT22;293;53.888;11.464;2023-05-07T09:33:32;14.90;99.90
612;DHT22;293;53.888;11.464;2023-05-07T09:36:02;14.90;99.90
612;DHT22;293;53.888;11.464;2023-05-07T09:38:30;14.90;99.20
612;DHT22;293;53.888;11.464;2023-05-07T09:41:09;15.00;98.70
612;DHT22;293;53.888;11.464;2023-05-07T09:43:38;15.00;99.70
612;DHT22;293;53.888;11.464;2023-05-07T09:46:12;14.90;99.90
612;DHT22;293;53.888;11.464;2023-05-07T09:48:41;15.00;99.60
612;DHT22;293;53.888;11.464;2023-05-07T09:51:17;15.10;99.10
612;DHT22;293;53.888;11.464;2023-05-07T09:53:47;15.10;99.30
612;DHT22;293;53.888;11.464;2023-05-07T09:56:16;15.20;99.20
612;DHT22;293;53.888;11.464;2023-05-07T09:58:45;15.20;98.70
612;DHT22;293;53.888;11.464;2023-05-07T10:01:12;15.40;99.10
612;DHT22;293;53.888;11.464;2023-05-07T10:03:40;15.60;99.10
612;DHT22;293;53.888;11.464;2023-05-07T10:06:09;15.70;98.50
612;DHT22;293;53.888;11.464;2023-05-07T10:11:04;15.80;98.40
612;DHT22;293;53.888;11.464;2023-05-07T10:13:33;15.90;98.50
612;DHT22;293;53.888;11.464;2023-05-07T10:16:03;16.00;98.50
612;DHT22;293;53.888;11.464;2023-05-07T10:18:30;16.10;97.60
612;DHT22;293;53.888;11.464;2023-05-07T10:21:02;16.20;97.40
612;DHT22;293;53.888;11.464;2023-05-07T10:23:32;16.20;97.40
612;DHT22;293;53.888;11.464;2023-05-07T10:26:02;16.20;97.00
612;DHT22;293;53.888;11.464;2023-05-07T10:28:34;16.10;97.60
612;DHT22;293;53.888;11.464;2023-05-07T10:31:15;16.40;97.80
612;DHT22;293;53.888;11.464;2023-05-07T10:33:47;16.60;96.90
612;DHT22;293;53.888;11.464;2023-05-07T10:36:16;16.80;96.70
612;DHT22;293;53.888;11.464;2023-05-07T10:38:43;16.90;96.40
612;DHT22;293;53.888;11.464;2023-05-07T10:41:11;17.00;96.70
612;DHT22;293;53.888;11.464;2023-05-07T10:43:41;17.10;96.10
612;DHT22;293;53.888;11.464;2023-05-07T10:46:14;17.10;95.40
612;DHT22;293;53.888;11.464;2023-05-07T10:49:06;17.10;94.60
612;DHT22;293;53.888;11.464;2023-05-07T10:51:34;16.90;95.30
612;DHT22;293;53.888;11.464;2023-05-07T10:54:21;17.00;94.80
612;DHT22;293;53.888;11.464;2023-05-07T10:56:48;17.10;94.80
612;DHT22;293;53.888;11.464;2023-05-07T10:59:36;17.20;95.20
612;DHT22;293;53.888;11.464;2023-05-07T11:02:07;17.20;94.50
612;DHT22;293;53.888;11.464;2023-05-07T11:04:36;17.10;94.40
612;DHT22;293;53.888;11.464;2023-05-07T11:07:26;17.10;94.30
612;DHT22;293;53.888;11.464;2023-05-07T11:10:04;17.00;94.60
612;DHT22;293;53.888;11.464;2023-05-07T11:12:50;16.70;95.40
612;DHT22;293;53.888;11.464;2023-05-07T11:15:39;16.80;95.50
612;DHT22;293;53.888;11.464;2023-05-07T11:18:07;17.00;95.20
612;DHT22;293;53.888;11.464;2023-05-07T11:20:52;17.20;95.00
612;DHT22;293;53.888;11.464;2023-05-07T11:26:46;17.60;94.10
612;DHT22;293;53.888;11.464;2023-05-07T11:29:15;17.70;93.60
612;DHT22;293;53.888;11.464;2023-05-07T11:31:44;17.90;93.60
612;DHT22;293;53.888;11.464;2023-05-07T11:34:15;18.00;93.00
612;DHT22;293;53.888;11.464;2023-05-07T11:36:47;18.10;92.60
612;DHT22;293;53.888;11.464;2023-05-07T11:39:29;18.20;91.80
612;DHT22;293;53.888;11.464;2023-05-07T11:41:57;18.30;91.70
612;DHT22;293;53.888;11.464;2023-05-07T11:44:24;18.40;92.30
612;DHT22;293;53.888;11.464;2023-05-07T11:46:52;18.50;92.70
612;DHT22;293;53.888;11.464;2023-05-07T11:49:19;18.70;92.20
612;DHT22;293;53.888;11.464;2023-05-07T11:51:46;18.90;90.60
612;DHT22;293;53.888;11.464;2023-05-07T11:54:15;19.00;90.40
612;DHT22;293;53.888;11.464;2023-05-07T11:56:44;19.10;90.40
612;DHT22;293;53.888;11.464;2023-05-07T11:59:17;19.00;90.00
612;DHT22;293;53.888;11.464;2023-05-07T12:01:45;19.10;90.00
612;DHT22;293;53.888;11.464;2023-05-07T12:04:18;19.00;89.80
612;DHT22;293;53.888;11.464;2023-05-07T12:06:46;18.90;90.00
612;DHT22;293;53.888;11.464;2023-05-07T12:09:12;18.80;88.20
612;DHT22;293;53.888;11.464;2023-05-07T12:11:40;18.80;88.80
612;DHT22;293;53.888;11.464;2023-05-07T12:14:07;18.80;89.20
612;DHT22;293;53.888;11.464;2023-05-07T12:16:34;18.70;89.50
612;DHT22;293;53.888;11.464;2023-05-07T12:19:01;18.50;91.10
612;DHT22;293;53.888;11.464;2023-05-07T12:21:30;18.40;90.30
612;DHT22;293;53.888;11.464;2023-05-07T12:23:57;18.50;90.90
612;DHT22;293;53.888;11.464;2023-05-07T12:26:24;18.50;88.60
612;DHT22;293;53.888;11.464;2023-05-07T12:28:52;18.60;89.40
612;DHT22;293;53.888;11.464;2023-05-07T12:31:18;18.70;89.70
612;DHT22;293;53.888;11.464;2023-05-07T12:33:45;18.80;88.60
612;DHT22;293;53.888;11.464;2023-05-07T12:36:13;18.90;87.80
612;DHT22;293;53.888;11.464;2023-05-07T12:38:41;18.80;87.00
612;DHT22;293;53.888;11.464;2023-05-07T12:41:09;18.90;87.00
612;DHT22;293;53.888;11.464;2023-05-07T12:43:38;18.90;86.70
612;DHT22;293;53.888;11.464;2023-05-07T12:46:06;19.00;86.10
612;DHT22;293;53.888;11.464;2023-05-07T12:48:35;19.10;87.20
612;DHT22;293;53.888;11.464;2023-05-07T12:51:02;19.00;86.10
612;DHT22;293;53.888;11.464;2023-05-07T12:53:29;18.90;85.80
612;DHT22;293;53.888;11.464;2023-05-07T12:55:59;18.80;87.20
612;DHT22;293;53.888;11.464;2023-05-07T12:58:27;18.80;88.60
612;DHT22;293;53.888;11.464;2023-05-07T13:00:56;18.80;87.20
612;DHT22;293;53.888;11.464;2023-05-07T13:03:26;18.90;87.80
612;DHT22;293;53.888;11.464;2023-05-07T13:05:54;18.90;87.30
612;DHT22;293;53.888;11.464;2023-05-07T13:08:29;18.90;86.80
612;DHT22;293;53.888;11.464;2023-05-07T13:10:59;18.80;86.50
612;DHT22;293;53.888;11.464;2023-05-07T13:13:28;18.60;85.30
612;DHT22;293;53.888;11.464;2023-05-07T13:15:55;18.50;85.10
612;DHT22;293;53.888;11.464;2023-05-07T13:18:23;18.40;84.90
612;DHT22;293;53.888;11.464;2023-05-07T13:20:50;18.20;86.60
612;DHT22;293;53.888;11.464;2023-05-07T13:23:17;18.00;86.60
612;DHT22;293;53.888;11.464;2023-05-07T13:25:44;17.90;85.00
612;DHT22;293;53.888;11.464;2023-05-07T13:28:12;17.90;85.50
612;DHT22;293;53.888;11.464;2023-05-07T13:30:39;18.00;87.70
612;DHT22;293;53.888;11.464;2023-05-07T13:33:07;18.10;87.20
612;DHT22;293;53.888;11.464;2023-05-07T13:35:34;18.20;87.60
612;DHT22;293;53.888;11.464;2023-05-07T13:38:01;18.40;85.70
612;DHT22;293;53.888;11.464;2023-05-07T13:40:28;18.50;85.70
612;DHT22;293;53.888;11.464;2023-05-07T13:42:57;18.70;87.20
612;DHT22;293;53.888;11.464;2023-05-07T13:45:27;18.80;85.30
612;DHT22;293;53.888;11.464;2023-05-07T13:47:55;18.90;84.30
612;DHT22;293;53.888;11.464;2023-05-07T13:50:22;18.80;84.70
612;DHT22;293;53.888;11.464;2023-05-07T13:52:49;18.90;85.50
612;DHT22;293;53.888;11.464;2023-05-07T13:55:17;18.90;83.10
612;DHT22;293;53.888;11.464;2023-05-07T13:57:44;18.80;83.20
612;DHT22;293;53.888;11.464;2023-05-07T14:00:12;18.80;85.30
612;DHT22;293;53.888;11.464;2023-05-07T14:02:41;18.70;85.10
612;DHT22;293;53.888;11.464;2023-05-07T14:05:08;18.70;85.40
612;DHT22;293;53.888;11.464;2023-05-07T14:07:35;18.80;83.80
612;DHT22;293;53.888;11.464;2023-05-07T14:10:03;18.90;85.60
612;DHT22;293;53.888;11.464;2023-05-07T14:12:30;18.90;82.60
612;DHT22;293;53.888;11.464;2023-05-07T14:14:56;18.90;82.40
612;DHT22;293;53.888;11.464;2023-05-07T14:17:23;18.90;82.10
612;DHT22;293;53.888;11.464;2023-05-07T14:19:54;19.00;82.60
612;DHT22;293;53.888;11.464;2023-05-07T14:22:21;19.10;82.30
612;DHT22;293;53.888;11.464;2023-05-07T14:24:48;19.10;82.20
612;DHT22;293;53.888;11.464;2023-05-07T14:27:15;19.00;81.70
612;DHT22;293;53.888;11.464;2023-05-07T14:29:42;19.00;82.00
612;DHT22;293;53.888;11.464;2023-05-07T14:32:11;19.00;82.20
612;DHT22;293;53.888;11.464;2023-05-07T14:34:37;19.10;81.40
612;DHT22;293;53.888;11.464;2023-05-07T14:37:06;19.10;82.00
612;DHT22;293;53.888;11.464;2023-05-07T14:39:32;19.20;80.80
612;DHT22;293;53.888;11.464;2023-05-07T14:41:59;19.20;80.20
612;DHT22;293;53.888;11.464;2023-05-07T14:44:26;19.20;79.30
612;DHT22;293;53.888;11.464;2023-05-07T14:46:53;19.20;79.60
612;DHT22;293;53.888;11.464;2023-05-07T14:49:20;19.10;78.90
612;DHT22;293;53.888;11.464;2023-05-07T14:51:47;19.20;78.60
612;DHT22;293;53.888;11.464;2023-05-07T14:54:15;19.10;79.50
612;DHT22;293;53.888;11.464;2023-05-07T14:56:42;19.00;80.00
612;DHT22;293;53.888;11.464;2023-05-07T14:59:09;19.00;80.30
612;DHT22;293;53.888;11.464;2023-05-07T15:01:37;19.00;80.40
612;DHT22;293;53.888;11.464;2023-05-07T15:04:06;18.90;78.60
612;DHT22;293;53.888;11.464;2023-05-07T15:06:32;18.90;80.10
612;DHT22;293;53.888;11.464;2023-05-07T15:09:00;19.00;80.40
612;DHT22;293;53.888;11.464;2023-05-07T15:11:28;19.00;79.30
612;DHT22;293;53.888;11.464;2023-05-07T15:13:55;18.90;80.50
612;DHT22;293;53.888;11.464;2023-05-07T15:16:22;18.80;79.60
612;DHT22;293;53.888;11.464;2023-05-07T15:18:49;18.80;79.30
612;DHT22;293;53.888;11.464;2023-05-07T15:21:16;18.70;80.60
612;DHT22;293;53.888;11.464;2023-05-07T15:23:43;18.70;80.90
612;DHT22;293;53.888;11.464;2023-05-07T15:26:10;18.80;80.00
612;DHT22;293;53.888;11.464;2023-05-07T15:28:39;18.80;81.00
612;DHT22;293;53.888;11.464;2023-05-07T15:31:06;18.90;82.00
612;DHT22;293;53.888;11.464;2023-05-07T15:33:32;19.00;81.10
612;DHT22;293;53.888;11.464;2023-05-07T15:35:59;19.10;79.50
612;DHT22;293;53.888;11.464;2023-05-07T15:38:28;19.10;80.90
612;DHT22;293;53.888;11.464;2023-05-07T15:40:55;19.20;79.30
612;DHT22;293;53.888;11.464;2023-05-07T15:43:22;19.20;78.70
612;DHT22;293;53.888;11.464;2023-05-07T15:45:51;19.10;79.10
612;DHT22;293;53.888;11.464;2023-05-07T15:48:19;19.00;80.20
612;DHT22;293;53.888;11.464;2023-05-07T15:50:46;18.90;79.70
612;DHT22;293;53.888;11.464;2023-05-07T15:53:13;18.80;79.70
612;DHT22;293;53.888;11.464;2023-05-07T15:55:40;18.70;80.10
612;DHT22;293;53.888;11.464;2023-05-07T15:58:08;18.70;82.00
612;DHT22;293;53.888;11.464;2023-05-07T16:00:35;18.70;81.70
612;DHT22;293;53.888;11.464;2023-05-07T16:03:07;18.70;81.80
612;DHT22;293;53.888;11.464;2023-05-07T16:05:34;18.70;81.80
612;DHT22;293;53.888;11.464;2023-05-07T16:08:01;18.70;83.00
612;DHT22;293;53.888;11.464;2023-05-07T16:10:29;18.80;80.30
612;DHT22;293;53.888;11.464;2023-05-07T16:12:56;18.80;80.50
612;DHT22;293;53.888;11.464;2023-05-07T16:15:23;18.80;80.90
612;DHT22;293;53.888;11.464;2023-05-07T16:17:49;18.70;81.80
612;DHT22;293;53.888;11.464;2023-05-07T16:20:25;18.60;81.40
612;DHT22;293;53.888;11.464;2023-05-07T16:22:54;18.60;82.00
612;DHT22;293;53.888;11.464;2023-05-07T16:25:21;18.60;83.60
612;DHT22;293;53.888;11.464;2023-05-07T16:27:47;18.60;81.90
612;DHT22;293;53.888;11.464;2023-05-07T16:30:15;18.40;82.40
612;DHT22;293;53.888;11.464;2023-05-07T16:32:42;18.40;82.00